sensor_id;sensor_type;location;lat;lon;timestamp;pressure;altitude;pressure_sealevel;temperature;humidity
69980;BME280;57318;56.232;43.944;2023-04-29T00:02:18;98714.16;;;12.31;62.94
69980;BME280;57318;56.232;43.944;2023-04-29T00:04:44;98715.97;;;12.31;63.32
69980;BME280;57318;56.232;43.944;2023-04-29T00:07:10;98719.34;;;12.33;62.92
69980;BME280;57318;56.232;43.944;2023-04-29T00:09:39;98720.16;;;12.33;62.92
69980;BME280;57318;56.232;43.944;2023-04-29T00:12:05;98714.00;;;12.33;62.45
69980;BME280;57318;56.232;43.944;2023-04-29T00:14:31;98712.19;;;12.33;62.96
69980;BME280;57318;56.232;43.944;2023-04-29T00:16:56;98714.84;;;12.33;62.68
69980;BME280;57318;56.232;43.944;2023-04-29T00:19:22;98710.34;;;12.34;62.62
69980;BME280;57318;56.232;43.944;2023-04-29T00:21:48;98710.34;;;12.34;62.55
69980;BME280;57318;56.232;43.944;2023-04-29T00:24:14;98718.34;;;12.34;62.38
69980;BME280;57318;56.232;43.944;2023-04-29T00:26:39;98713.16;;;12.32;62.22
69980;BME280;57318;56.232;43.944;2023-04-29T00:29:05;98714.16;;;12.31;62.03
69980;BME280;57318;56.232;43.944;2023-04-29T00:31:31;98711.34;;;12.33;61.88
69980;BME280;57318;56.232;43.944;2023-04-29T00:33:57;98708.69;;;12.33;61.47
69980;BME280;57318;56.232;43.944;2023-04-29T00:36:23;98713.41;;;12.39;60.64
69980;BME280;57318;56.232;43.944;2023-04-29T00:38:49;98710.28;;;12.43;60.69
69980;BME280;57318;56.232;43.944;2023-04-29T00:41:14;98706.75;;;12.43;60.60
69980;BME280;57318;56.232;43.944;2023-04-29T00:43:41;98703.78;;;12.46;60.11
69980;BME280;57318;56.232;43.944;2023-04-29T00:46:06;98702.50;;;12.50;59.74
69980;BME280;57318;56.232;43.944;2023-04-29T00:48:32;98701.19;;;12.54;59.45
69980;BME280;57318;56.232;43.944;2023-04-29T00:50:59;98705.25;;;12.58;58.90
69980;BME280;57318;56.232;43.944;2023-04-29T00:53:25;98695.25;;;12.60;58.62
69980;BME280;57318;56.232;43.944;2023-04-29T00:55:50;98698.31;;;12.66;58.43
69980;BME280;57318;56.232;43.944;2023-04-29T00:58:17;98689.31;;;12.67;58.26
69980;BME280;57318;56.232;43.944;2023-04-29T01:00:44;98683.81;;;12.68;58.32
69980;BME280;57318;56.232;43.944;2023-04-29T01:03:12;98697.16;;;12.68;57.88
69980;BME280;57318;56.232;43.944;2023-04-29T01:05:38;98697.31;;;12.67;58.19
69980;BME280;57318;56.232;43.944;2023-04-29T01:11:07;98694.63;;;12.67;57.92
69980;BME280;57318;56.232;43.944;2023-04-29T01:13:42;98693.81;;;12.66;58.11
69980;BME280;57318;56.232;43.944;2023-04-29T01:16:16;98685.13;;;12.64;58.15
69980;BME280;57318;56.232;43.944;2023-04-29T01:18:49;98678.28;;;12.61;57.89
69980;BME280;57318;56.232;43.944;2023-04-29T01:21:19;98687.25;;;12.60;58.10
69980;BME280;57318;56.232;43.944;2023-04-29T01:23:45;98680.59;;;12.56;58.34
69980;BME280;57318;56.232;43.944;2023-04-29T01:26:11;98689.19;;;12.50;58.30
69980;BME280;57318;56.232;43.944;2023-04-29T01:31:48;98682.47;;;12.46;58.30
69980;BME280;57318;56.232;43.944;2023-04-29T01:34:33;98694.16;;;12.45;58.72
69980;BME280;57318;56.232;43.944;2023-04-29T01:37:30;98686.16;;;12.45;58.51
69980;BME280;57318;56.232;43.944;2023-04-29T01:42:44;98690.00;;;12.51;57.46
69980;BME280;57318;56.232;43.944;2023-04-29T01:45:14;98689.09;;;12.60;57.07
69980;BME280;57318;56.232;43.944;2023-04-29T01:47:46;98693.66;;;12.68;56.75
69980;BME280;57318;56.232;43.944;2023-04-29T01:50:12;98694.03;;;12.73;56.28
69980;BME280;57318;56.232;43.944;2023-04-29T01:52:38;98692.56;;;12.78;56.38
69980;BME280;57318;56.232;43.944;2023-04-29T01:55:04;98704.44;;;12.84;56.31
69980;BME280;57318;56.232;43.944;2023-04-29T01:57:30;98697.28;;;12.85;56.05
69980;BME280;57318;56.232;43.944;2023-04-29T01:59:56;98696.13;;;12.87;55.78
69980;BME280;57318;56.232;43.944;2023-04-29T02:02:22;98698.47;;;12.90;55.64
69980;BME280;57318;56.232;43.944;2023-04-29T02:04:49;98692.84;;;12.93;55.58
69980;BME280;57318;56.232;43.944;2023-04-29T02:07:16;98701.38;;;12.97;55.69
69980;BME280;57318;56.232;43.944;2023-04-29T02:09:42;98695.88;;;12.98;55.30
69980;BME280;57318;56.232;43.944;2023-04-29T02:12:07;98705.38;;;13.01;55.23
69980;BME280;57318;56.232;43.944;2023-04-29T02:14:33;98706.75;;;13.05;55.39
69980;BME280;57318;56.232;43.944;2023-04-29T02:17:00;98700.72;;;13.03;55.33
69980;BME280;57318;56.232;43.944;2023-04-29T02:19:25;98707.06;;;13.02;55.43
69980;BME280;57318;56.232;43.944;2023-04-29T02:21:51;98700.38;;;12.98;55.59
69980;BME280;57318;56.232;43.944;2023-04-29T02:24:17;98700.97;;;12.92;55.66
69980;BME280;57318;56.232;43.944;2023-04-29T02:26:43;98706.47;;;12.90;55.91
69980;BME280;57318;56.232;43.944;2023-04-29T02:29:08;98703.81;;;12.90;55.96
69980;BME280;57318;56.232;43.944;2023-04-29T02:31:34;98707.50;;;12.89;56.11
69980;BME280;57318;56.232;43.944;2023-04-29T02:34:00;98715.63;;;12.88;56.13
69980;BME280;57318;56.232;43.944;2023-04-29T02:36:26;98711.28;;;12.87;56.04
69980;BME280;57318;56.232;43.944;2023-04-29T02:38:52;98717.13;;;12.90;55.81
69980;BME280;57318;56.232;43.944;2023-04-29T02:41:20;98716.69;;;12.95;55.77
69980;BME280;57318;56.232;43.944;2023-04-29T02:43:46;98716.22;;;12.99;55.35
69980;BME280;57318;56.232;43.944;2023-04-29T02:46:13;98717.28;;;13.07;54.85
69980;BME280;57318;56.232;43.944;2023-04-29T02:48:39;98718.00;;;13.17;54.68
69980;BME280;57318;56.232;43.944;2023-04-29T02:51:05;98714.69;;;13.23;54.47
69980;BME280;57318;56.232;43.944;2023-04-29T02:53:31;98709.41;;;13.31;54.24
69980;BME280;57318;56.232;43.944;2023-04-29T02:55:57;98714.44;;;13.34;54.13
69980;BME280;57318;56.232;43.944;2023-04-29T02:58:23;98714.66;;;13.41;54.00
69980;BME280;57318;56.232;43.944;2023-04-29T03:00:49;98707.50;;;13.42;54.30
69980;BME280;57318;56.232;43.944;2023-04-29T03:03:15;98718.00;;;13.43;53.94
69980;BME280;57318;56.232;43.944;2023-04-29T03:05:41;98714.03;;;13.47;53.89
69980;BME280;57318;56.232;43.944;2023-04-29T03:08:07;98711.22;;;13.49;53.90
69980;BME280;57318;56.232;43.944;2023-04-29T03:10:35;98717.88;;;13.53;53.85
69980;BME280;57318;56.232;43.944;2023-04-29T03:13:00;98717.41;;;13.58;53.73
69980;BME280;57318;56.232;43.944;2023-04-29T03:15:26;98719.59;;;13.62;53.45
69980;BME280;57318;56.232;43.944;2023-04-29T03:17:52;98727.94;;;13.67;53.51
69980;BME280;57318;56.232;43.944;2023-04-29T03:20:18;98723.16;;;13.71;53.23
69980;BME280;57318;56.232;43.944;2023-04-29T03:22:44;98720.81;;;13.76;53.33
69980;BME280;57318;56.232;43.944;2023-04-29T03:25:10;98722.84;;;13.82;53.06
69980;BME280;57318;56.232;43.944;2023-04-29T03:27:38;98722.38;;;13.87;53.03
69980;BME280;57318;56.232;43.944;2023-04-29T03:30:05;98724.25;;;13.95;52.63
69980;BME280;57318;56.232;43.944;2023-04-29T03:32:31;98723.44;;;14.02;51.94
69980;BME280;57318;56.232;43.944;2023-04-29T03:34:57;98721.44;;;14.13;51.84
69980;BME280;57318;56.232;43.944;2023-04-29T03:37:23;98720.63;;;14.20;51.13
69980;BME280;57318;56.232;43.944;2023-04-29T03:39:48;98727.50;;;14.31;50.59
69980;BME280;57318;56.232;43.944;2023-04-29T03:42:14;98724.50;;;14.42;50.63
69980;BME280;57318;56.232;43.944;2023-04-29T03:44:40;98726.00;;;14.53;50.06
69980;BME280;57318;56.232;43.944;2023-04-29T03:47:06;98720.53;;;14.63;50.01
69980;BME280;57318;56.232;43.944;2023-04-29T03:49:32;98726.03;;;14.70;49.77
69980;BME280;57318;56.232;43.944;2023-04-29T03:51:58;98713.34;;;14.80;49.57
69980;BME280;57318;56.232;43.944;2023-04-29T03:54:24;98719.53;;;14.89;49.16
69980;BME280;57318;56.232;43.944;2023-04-29T03:56:50;98716.84;;;14.97;48.98
69980;BME280;57318;56.232;43.944;2023-04-29T03:59:16;98733.56;;;15.07;48.53
69980;BME280;57318;56.232;43.944;2023-04-29T04:01:41;98722.84;;;15.15;48.22
69980;BME280;57318;56.232;43.944;2023-04-29T04:04:07;98724.47;;;15.25;48.42
69980;BME280;57318;56.232;43.944;2023-04-29T04:06:33;98730.50;;;15.35;47.95
69980;BME280;57318;56.232;43.944;2023-04-29T04:08:58;98723.78;;;15.47;47.41
69980;BME280;57318;56.232;43.944;2023-04-29T04:11:24;98727.06;;;15.66;46.84
69980;BME280;57318;56.232;43.944;2023-04-29T04:13:50;98718.34;;;15.80;46.67
69980;BME280;57318;56.232;43.944;2023-04-29T04:16:16;98722.44;;;15.99;45.99
69980;BME280;57318;56.232;43.944;2023-04-29T04:18:42;98730.53;;;16.14;45.37
69980;BME280;57318;56.232;43.944;2023-04-29T04:21:09;98723.25;;;16.31;44.68
69980;BME280;57318;56.232;43.944;2023-04-29T04:23:35;98732.38;;;16.45;44.25
69980;BME280;57318;56.232;43.944;2023-04-29T04:26:02;98729.28;;;16.56;44.23
69980;BME280;57318;56.232;43.944;2023-04-29T04:28:28;98730.22;;;16.64;43.62
69980;BME280;57318;56.232;43.944;2023-04-29T04:30:53;98727.84;;;16.69;43.80
69980;BME280;57318;56.232;43.944;2023-04-29T04:33:19;98730.16;;;16.72;43.43
69980;BME280;57318;56.232;43.944;2023-04-29T04:35:45;98732.09;;;16.86;43.17
69980;BME280;57318;56.232;43.944;2023-04-29T04:38:10;98732.59;;;17.05;42.96
69980;BME280;57318;56.232;43.944;2023-04-29T04:40:40;98733.75;;;17.25;42.53
69980;BME280;57318;56.232;43.944;2023-04-29T04:43:06;98719.88;;;17.52;41.44
69980;BME280;57318;56.232;43.944;2023-04-29T04:45:32;98728.22;;;17.72;41.16
69980;BME280;57318;56.232;43.944;2023-04-29T04:47:57;98720.13;;;17.86;41.13
69980;BME280;57318;56.232;43.944;2023-04-29T04:50:23;98723.34;;;18.12;40.46
69980;BME280;57318;56.232;43.944;2023-04-29T04:52:49;98726.06;;;18.33;40.02
69980;BME280;57318;56.232;43.944;2023-04-29T04:55:15;98724.56;;;18.46;39.74
69980;BME280;57318;56.232;43.944;2023-04-29T04:57:40;98722.56;;;18.54;39.42
69980;BME280;57318;56.232;43.944;2023-04-29T05:00:06;98712.94;;;18.67;39.22
69980;BME280;57318;56.232;43.944;2023-04-29T05:02:34;98725.31;;;18.61;39.29
69980;BME280;57318;56.232;43.944;2023-04-29T05:05:00;98725.97;;;18.63;38.97
69980;BME280;57318;56.232;43.944;2023-04-29T05:07:25;98723.00;;;18.58;39.34
69980;BME280;57318;56.232;43.944;2023-04-29T05:09:51;98720.06;;;18.53;39.68
69980;BME280;57318;56.232;43.944;2023-04-29T05:12:17;98731.00;;;18.51;39.72
69980;BME280;57318;56.232;43.944;2023-04-29T05:14:43;98723.91;;;18.44;39.39
69980;BME280;57318;56.232;43.944;2023-04-29T05:17:08;98709.88;;;18.48;39.65
69980;BME280;57318;56.232;43.944;2023-04-29T05:19:35;98710.78;;;18.55;39.85
69980;BME280;57318;56.232;43.944;2023-04-29T05:22:01;98716.47;;;18.67;39.52
69980;BME280;57318;56.232;43.944;2023-04-29T05:24:27;98713.00;;;18.73;39.55
69980;BME280;57318;56.232;43.944;2023-04-29T05:26:54;98717.50;;;18.88;39.50
69980;BME280;57318;56.232;43.944;2023-04-29T05:29:20;98704.75;;;18.97;39.00
69980;BME280;57318;56.232;43.944;2023-04-29T05:31:46;98713.91;;;19.02;38.47
69980;BME280;57318;56.232;43.944;2023-04-29T05:34:13;98713.44;;;19.27;38.27
69980;BME280;57318;56.232;43.944;2023-04-29T05:36:38;98704.84;;;19.38;37.97
69980;BME280;57318;56.232;43.944;2023-04-29T05:39:04;98714.28;;;19.62;37.85
69980;BME280;57318;56.232;43.944;2023-04-29T05:41:30;98720.03;;;19.88;37.13
69980;BME280;57318;56.232;43.944;2023-04-29T05:43:56;98707.28;;;20.16;37.08
69980;BME280;57318;56.232;43.944;2023-04-29T05:46:21;98698.59;;;20.28;36.88
69980;BME280;57318;56.232;43.944;2023-04-29T05:48:47;98711.72;;;20.37;36.40
69980;BME280;57318;56.232;43.944;2023-04-29T05:51:13;98702.13;;;20.28;36.18
69980;BME280;57318;56.232;43.944;2023-04-29T05:53:38;98702.56;;;20.38;35.94
69980;BME280;57318;56.232;43.944;2023-04-29T05:56:05;98702.16;;;20.35;36.02
69980;BME280;57318;56.232;43.944;2023-04-29T05:58:35;98711.88;;;20.29;36.49
69980;BME280;57318;56.232;43.944;2023-04-29T06:01:01;98702.34;;;20.40;36.52
69980;BME280;57318;56.232;43.944;2023-04-29T06:03:27;98709.22;;;20.36;36.05
69980;BME280;57318;56.232;43.944;2023-04-29T06:05:53;98707.53;;;20.42;36.21
69980;BME280;57318;56.232;43.944;2023-04-29T06:08:19;98701.97;;;20.57;36.06
69980;BME280;57318;56.232;43.944;2023-04-29T06:10:45;98708.88;;;20.79;35.99
69980;BME280;57318;56.232;43.944;2023-04-29T06:13:11;98711.19;;;20.96;34.67
69980;BME280;57318;56.232;43.944;2023-04-29T06:15:37;98698.69;;;21.21;34.71
69980;BME280;57318;56.232;43.944;2023-04-29T06:18:03;98701.59;;;21.33;34.38
69980;BME280;57318;56.232;43.944;2023-04-29T06:20:29;98706.53;;;21.56;33.79
69980;BME280;57318;56.232;43.944;2023-04-29T06:22:55;98699.47;;;21.55;33.72
69980;BME280;57318;56.232;43.944;2023-04-29T06:25:20;98699.81;;;21.72;34.04
69980;BME280;57318;56.232;43.944;2023-04-29T06:27:46;98702.03;;;21.95;33.15
69980;BME280;57318;56.232;43.944;2023-04-29T06:30:13;98700.91;;;22.55;32.44
69980;BME280;57318;56.232;43.944;2023-04-29T06:32:39;98705.44;;;24.11;29.66
69980;BME280;57318;56.232;43.944;2023-04-29T06:35:05;98694.81;;;26.00;26.83
69980;BME280;57318;56.232;43.944;2023-04-29T06:37:31;98711.00;;;27.71;24.74
69980;BME280;57318;56.232;43.944;2023-04-29T06:39:57;98708.22;;;29.25;22.93
69980;BME280;57318;56.232;43.944;2023-04-29T06:42:22;98709.91;;;30.47;21.44
69980;BME280;57318;56.232;43.944;2023-04-29T06:44:48;98713.44;;;31.45;20.00
69980;BME280;57318;56.232;43.944;2023-04-29T06:47:14;98707.38;;;31.64;19.61
69980;BME280;57318;56.232;43.944;2023-04-29T06:49:40;98714.16;;;32.47;18.79
69980;BME280;57318;56.232;43.944;2023-04-29T06:52:08;98709.75;;;32.91;18.71
69980;BME280;57318;56.232;43.944;2023-04-29T06:54:34;98715.22;;;32.12;19.18
69980;BME280;57318;56.232;43.944;2023-04-29T06:57:00;98698.41;;;30.86;20.84
69980;BME280;57318;56.232;43.944;2023-04-29T06:59:26;98704.34;;;29.63;21.94
69980;BME280;57318;56.232;43.944;2023-04-29T07:01:52;98703.88;;;28.96;22.13
69980;BME280;57318;56.232;43.944;2023-04-29T07:04:18;98708.69;;;29.54;21.36
69980;BME280;57318;56.232;43.944;2023-04-29T07:06:44;98697.84;;;30.84;20.13
69980;BME280;57318;56.232;43.944;2023-04-29T07:09:14;98697.03;;;31.30;19.32
69980;BME280;57318;56.232;43.944;2023-04-29T07:11:40;98703.34;;;31.15;19.54
69980;BME280;57318;56.232;43.944;2023-04-29T07:14:06;98700.81;;;31.55;19.11
69980;BME280;57318;56.232;43.944;2023-04-29T07:16:32;98699.97;;;31.64;18.88
69980;BME280;57318;56.232;43.944;2023-04-29T07:18:59;98677.28;;;30.51;20.14
69980;BME280;57318;56.232;43.944;2023-04-29T07:21:24;98688.94;;;29.47;21.12
69980;BME280;57318;56.232;43.944;2023-04-29T07:23:51;98683.09;;;28.36;22.52
69980;BME280;57318;56.232;43.944;2023-04-29T07:26:17;98679.38;;;28.20;22.84
69980;BME280;57318;56.232;43.944;2023-04-29T07:28:43;98680.13;;;29.40;21.70
69980;BME280;57318;56.232;43.944;2023-04-29T07:31:10;98702.41;;;30.22;20.72
69980;BME280;57318;56.232;43.944;2023-04-29T07:33:36;98683.34;;;31.15;19.93
69980;BME280;57318;56.232;43.944;2023-04-29T07:36:02;98677.03;;;30.63;20.38
69980;BME280;57318;56.232;43.944;2023-04-29T07:38:29;98658.69;;;29.21;21.24
69980;BME280;57318;56.232;43.944;2023-04-29T07:40:55;98653.63;;;27.27;23.48
69980;BME280;57318;56.232;43.944;2023-04-29T07:43:20;98665.63;;;26.58;24.31
69980;BME280;57318;56.232;43.944;2023-04-29T07:45:47;98670.63;;;26.33;24.90
69980;BME280;57318;56.232;43.944;2023-04-29T07:48:12;98667.75;;;27.41;24.03
69980;BME280;57318;56.232;43.944;2023-04-29T07:50:38;98670.53;;;27.46;24.02
69980;BME280;57318;56.232;43.944;2023-04-29T07:53:04;98663.66;;;27.39;24.12
69980;BME280;57318;56.232;43.944;2023-04-29T07:55:30;98666.63;;;27.37;24.66
69980;BME280;57318;56.232;43.944;2023-04-29T07:57:56;98674.94;;;27.69;23.97
69980;BME280;57318;56.232;43.944;2023-04-29T08:00:23;98666.78;;;26.62;23.96
69980;BME280;57318;56.232;43.944;2023-04-29T08:02:52;98659.50;;;26.51;24.19
69980;BME280;57318;56.232;43.944;2023-04-29T08:05:18;98662.41;;;26.16;24.98
69980;BME280;57318;56.232;43.944;2023-04-29T08:07:46;98659.25;;;26.07;25.29
69980;BME280;57318;56.232;43.944;2023-04-29T08:10:14;98678.13;;;26.42;24.70
69980;BME280;57318;56.232;43.944;2023-04-29T08:12:40;98647.66;;;27.30;24.12
69980;BME280;57318;56.232;43.944;2023-04-29T08:15:06;98656.03;;;28.07;23.15
69980;BME280;57318;56.232;43.944;2023-04-29T08:17:33;98649.53;;;28.68;21.66
69980;BME280;57318;56.232;43.944;2023-04-29T08:19:59;98643.88;;;29.75;21.02
69980;BME280;57318;56.232;43.944;2023-04-29T08:22:25;98641.34;;;31.09;18.54
69980;BME280;57318;56.232;43.944;2023-04-29T08:24:50;98636.06;;;32.03;18.06
69980;BME280;57318;56.232;43.944;2023-04-29T08:27:16;98648.19;;;30.96;19.09
69980;BME280;57318;56.232;43.944;2023-04-29T08:29:42;98637.47;;;31.20;19.30
69980;BME280;57318;56.232;43.944;2023-04-29T08:32:08;98618.47;;;31.44;18.77
69980;BME280;57318;56.232;43.944;2023-04-29T08:34:33;98622.09;;;30.06;20.07
69980;BME280;57318;56.232;43.944;2023-04-29T08:37:01;98626.19;;;29.98;19.89
69980;BME280;57318;56.232;43.944;2023-04-29T08:39:28;98643.44;;;29.89;20.17
69980;BME280;57318;56.232;43.944;2023-04-29T08:41:57;98621.53;;;29.99;20.21
69980;BME280;57318;56.232;43.944;2023-04-29T08:44:26;98628.25;;;29.17;20.64
69980;BME280;57318;56.232;43.944;2023-04-29T08:46:52;98615.94;;;28.13;22.12
69980;BME280;57318;56.232;43.944;2023-04-29T08:49:18;98618.13;;;27.66;22.55
69980;BME280;57318;56.232;43.944;2023-04-29T08:51:47;98613.19;;;28.40;21.83
69980;BME280;57318;56.232;43.944;2023-04-29T08:54:14;98618.44;;;27.92;22.26
69980;BME280;57318;56.232;43.944;2023-04-29T08:56:44;98626.16;;;27.95;21.96
69980;BME280;57318;56.232;43.944;2023-04-29T08:59:12;98619.63;;;28.01;22.09
69980;BME280;57318;56.232;43.944;2023-04-29T09:01:39;98630.69;;;27.89;22.03
69980;BME280;57318;56.232;43.944;2023-04-29T09:07:00;98621.25;;;28.24;22.23
69980;BME280;57318;56.232;43.944;2023-04-29T09:09:27;98621.78;;;28.54;21.79
69980;BME280;57318;56.232;43.944;2023-04-29T09:11:54;98625.66;;;28.58;21.90
69980;BME280;57318;56.232;43.944;2023-04-29T09:14:21;98633.16;;;28.73;21.42
69980;BME280;57318;56.232;43.944;2023-04-29T09:16:48;98616.13;;;29.03;21.36
69980;BME280;57318;56.232;43.944;2023-04-29T09:19:34;98646.81;;;29.10;20.94
69980;BME280;57318;56.232;43.944;2023-04-29T09:22:03;98613.38;;;29.41;20.67
69980;BME280;57318;56.232;43.944;2023-04-29T09:24:31;98612.22;;;30.10;19.90
69980;BME280;57318;56.232;43.944;2023-04-29T09:26:58;98613.09;;;31.84;18.68
69980;BME280;57318;56.232;43.944;2023-04-29T09:29:24;98601.16;;;31.54;18.20
69980;BME280;57318;56.232;43.944;2023-04-29T09:31:50;98636.38;;;31.26;18.46
69980;BME280;57318;56.232;43.944;2023-04-29T09:34:30;98612.25;;;31.13;18.48
69980;BME280;57318;56.232;43.944;2023-04-29T09:36:56;98613.63;;;31.86;17.87
69980;BME280;57318;56.232;43.944;2023-04-29T09:39:24;98604.34;;;30.65;19.02
69980;BME280;57318;56.232;43.944;2023-04-29T09:44:20;98614.84;;;29.16;20.31
69980;BME280;57318;56.232;43.944;2023-04-29T09:46:59;98592.28;;;30.61;18.99
69980;BME280;57318;56.232;43.944;2023-04-29T09:49:38;98624.53;;;32.01;17.98
69980;BME280;57318;56.232;43.944;2023-04-29T09:52:08;98615.00;;;31.18;17.99
69980;BME280;57318;56.232;43.944;2023-04-29T09:54:36;98619.81;;;31.47;17.83
69980;BME280;57318;56.232;43.944;2023-04-29T09:57:04;98603.44;;;32.36;16.76
69980;BME280;57318;56.232;43.944;2023-04-29T09:59:34;98596.31;;;32.30;16.82
69980;BME280;57318;56.232;43.944;2023-04-29T10:02:04;98601.03;;;31.85;17.22
69980;BME280;57318;56.232;43.944;2023-04-29T10:04:34;98622.66;;;31.21;18.22
69980;BME280;57318;56.232;43.944;2023-04-29T10:07:00;98608.56;;;29.74;19.76
69980;BME280;57318;56.232;43.944;2023-04-29T10:09:27;98609.88;;;28.65;20.66
69980;BME280;57318;56.232;43.944;2023-04-29T10:11:53;98592.25;;;27.47;22.05
69980;BME280;57318;56.232;43.944;2023-04-29T10:14:21;98574.88;;;26.92;22.85
69980;BME280;57318;56.232;43.944;2023-04-29T10:20:08;98585.44;;;27.94;22.17
69980;BME280;57318;56.232;43.944;2023-04-29T10:22:23;98569.19;;;27.15;22.73
69980;BME280;57318;56.232;43.944;2023-04-29T10:24:52;98578.50;;;26.13;24.36
69980;BME280;57318;56.232;43.944;2023-04-29T10:27:20;98580.66;;;25.41;25.32
69980;BME280;57318;56.232;43.944;2023-04-29T10:29:47;98577.66;;;24.66;26.60
69980;BME280;57318;56.232;43.944;2023-04-29T10:32:15;98597.00;;;24.04;29.94
69980;BME280;57318;56.232;43.944;2023-04-29T10:34:42;98604.91;;;22.51;36.03
69980;BME280;57318;56.232;43.944;2023-04-29T10:37:11;98602.03;;;21.23;36.21
69980;BME280;57318;56.232;43.944;2023-04-29T10:40:15;98607.31;;;20.71;36.46
69980;BME280;57318;56.232;43.944;2023-04-29T10:45:28;98644.03;;;20.52;38.17
69980;BME280;57318;56.232;43.944;2023-04-29T10:53:03;98679.16;;;17.99;53.70
69980;BME280;57318;56.232;43.944;2023-04-29T10:55:29;98685.41;;;17.55;55.65
69980;BME280;57318;56.232;43.944;2023-04-29T10:57:56;98677.94;;;17.36;55.84
69980;BME280;57318;56.232;43.944;2023-04-29T11:00:25;98720.59;;;17.30;55.69
69980;BME280;57318;56.232;43.944;2023-04-29T11:02:56;98733.66;;;17.19;58.88
69980;BME280;57318;56.232;43.944;2023-04-29T11:08:12;98768.91;;;16.69;63.44
69980;BME280;57318;56.232;43.944;2023-04-29T11:10:41;98758.53;;;16.43;65.84
69980;BME280;57318;56.232;43.944;2023-04-29T11:13:23;98762.06;;;16.12;66.39
69980;BME280;57318;56.232;43.944;2023-04-29T11:15:53;98767.69;;;15.94;67.39
69980;BME280;57318;56.232;43.944;2023-04-29T11:18:19;98777.09;;;15.82;68.00
69980;BME280;57318;56.232;43.944;2023-04-29T11:23:29;98802.38;;;15.71;69.19
69980;BME280;57318;56.232;43.944;2023-04-29T11:25:55;98799.22;;;15.67;69.54
69980;BME280;57318;56.232;43.944;2023-04-29T11:28:26;98803.72;;;15.67;70.18
69980;BME280;57318;56.232;43.944;2023-04-29T11:30:52;98810.22;;;15.73;70.59
69980;BME280;57318;56.232;43.944;2023-04-29T11:33:22;98805.91;;;15.80;70.85
69980;BME280;57318;56.232;43.944;2023-04-29T11:35:48;98798.84;;;15.87;70.94
69980;BME280;57318;56.232;43.944;2023-04-29T11:38:14;98790.28;;;15.92;71.00
69980;BME280;57318;56.232;43.944;2023-04-29T11:40:50;98789.59;;;15.98;70.87
69980;BME280;57318;56.232;43.944;2023-04-29T11:43:19;98772.47;;;16.07;71.45
69980;BME280;57318;56.232;43.944;2023-04-29T11:45:45;98784.13;;;16.14;71.01
69980;BME280;57318;56.232;43.944;2023-04-29T11:48:20;98795.53;;;16.16;70.51
69980;BME280;57318;56.232;43.944;2023-04-29T11:50:49;98800.91;;;16.08;70.42
69980;BME280;57318;56.232;43.944;2023-04-29T11:53:18;98803.47;;;16.01;70.85
69980;BME280;57318;56.232;43.944;2023-04-29T11:55:45;98785.25;;;15.88;71.41
69980;BME280;57318;56.232;43.944;2023-04-29T11:58:11;98783.75;;;15.86;72.27
69980;BME280;57318;56.232;43.944;2023-04-29T12:00:37;98805.06;;;15.71;69.71
69980;BME280;57318;56.232;43.944;2023-04-29T12:03:21;98781.31;;;15.60;70.40
69980;BME280;57318;56.232;43.944;2023-04-29T12:05:50;98783.84;;;15.45;69.57
69980;BME280;57318;56.232;43.944;2023-04-29T12:08:23;98796.09;;;15.39;71.27
69980;BME280;57318;56.232;43.944;2023-04-29T12:10:50;98791.41;;;15.33;72.38
69980;BME280;57318;56.232;43.944;2023-04-29T12:13:17;98796.75;;;15.33;73.29
69980;BME280;57318;56.232;43.944;2023-04-29T12:15:47;98788.38;;;15.28;73.44
69980;BME280;57318;56.232;43.944;2023-04-29T12:18:16;98783.88;;;15.37;73.75
69980;BME280;57318;56.232;43.944;2023-04-29T12:20:43;98794.06;;;15.41;73.52
69980;BME280;57318;56.232;43.944;2023-04-29T12:23:23;98803.09;;;15.48;74.62
69980;BME280;57318;56.232;43.944;2023-04-29T12:25:56;98788.00;;;15.56;75.21
69980;BME280;57318;56.232;43.944;2023-04-29T12:28:23;98794.69;;;15.68;75.11
69980;BME280;57318;56.232;43.944;2023-04-29T12:30:50;98799.00;;;15.85;74.71
69980;BME280;57318;56.232;43.944;2023-04-29T12:33:28;98802.47;;;16.02;73.93
69980;BME280;57318;56.232;43.944;2023-04-29T12:35:57;98808.06;;;16.24;73.52
69980;BME280;57318;56.232;43.944;2023-04-29T12:38:25;98798.69;;;16.51;72.45
69980;BME280;57318;56.232;43.944;2023-04-29T12:40:54;98803.91;;;16.76;71.30
69980;BME280;57318;56.232;43.944;2023-04-29T12:43:27;98807.88;;;16.88;70.29
69980;BME280;57318;56.232;43.944;2023-04-29T12:45:59;98805.84;;;16.90;69.39
69980;BME280;57318;56.232;43.944;2023-04-29T12:48:29;98817.53;;;16.98;69.46
69980;BME280;57318;56.232;43.944;2023-04-29T12:50:55;98828.00;;;16.84;67.49
69980;BME280;57318;56.232;43.944;2023-04-29T12:53:22;98837.09;;;16.12;67.35
69980;BME280;57318;56.232;43.944;2023-04-29T12:55:48;98844.09;;;15.49;67.98
69980;BME280;57318;56.232;43.944;2023-04-29T12:58:15;98849.44;;;15.00;69.43
69980;BME280;57318;56.232;43.944;2023-04-29T13:00:40;98850.16;;;14.51;69.78
69980;BME280;57318;56.232;43.944;2023-04-29T13:03:06;98863.16;;;14.03;70.94
69980;BME280;57318;56.232;43.944;2023-04-29T13:05:32;98843.44;;;13.69;71.94
69980;BME280;57318;56.232;43.944;2023-04-29T13:07:58;98840.66;;;13.53;72.79
69980;BME280;57318;56.232;43.944;2023-04-29T13:10:24;98861.75;;;13.38;72.92
69980;BME280;57318;56.232;43.944;2023-04-29T13:12:50;98860.06;;;13.19;73.51
69980;BME280;57318;56.232;43.944;2023-04-29T13:15:16;98863.81;;;13.08;73.40
69980;BME280;57318;56.232;43.944;2023-04-29T13:17:42;98863.91;;;12.98;73.42
69980;BME280;57318;56.232;43.944;2023-04-29T13:20:08;98855.50;;;12.93;73.05
69980;BME280;57318;56.232;43.944;2023-04-29T13:22:36;98866.75;;;12.87;73.19